Portada
METAR-TAF:

METAR-TAF

Aeroports :

Bodensee

Friedrichshafen, Alemanya

latitud: 47-40N, longitud: 009-31E, altitud: 416 m

Observació

L'informe es va fer fa 21 minuts, a les 16:20 UTC
Vent 3 kt del Est
Temperatura 2°C
Humitat 69%
Pressió 1025 hPa
Visibilitat 10 km o més
sense núvols per sota de 1500 mi sense presència de cumulonimbus.

METAR: EDNY 101620Z 10003KT CAVOK 02/M03 Q1025

Hora: 17:41 (16:41 UTC)

Pronòstic

L'informe es va fer fa 5 hores i 41 minuts, a les 11:00 UTC
Pronòstic vàlid del 10 a les 12 UTC al 11 a les 12 UTC
Vent 6 kt del Oest
Visibilitat 10 km o més
sense núvols per sota de 1500 mi sense presència de cumulonimbus.
Evolucionant progressivament
l' 10 a les 15 UTC al 10 a les 17 UTC
Vent 3 kt amb direcció variable

TAF: EDNY 101100Z 1012/1112 28006KT CAVOK BECMG 1015/1017 VRB03KT

Observacions i pronòstics meteorològics de més de 4000 aeroports (METAR i TAF).

Les estacions disponibles són els punts grocs i vermells al mapa.

Posi el ratolí al punt desitjat per veure el nom de l'estació.

Feu clic per veure les observacions i els pronòstics meteorològics.

Per canviar el mapa: feu clic els botons verds amb una creu de color negre per apropar; al botó verd amb un guió per allunyar la imatge; o en les fletxes verdes per a mapes adjacents.


METAR-TAF: